sensor_id;sensor_type;location;lat;lon;timestamp;P1;durP1;ratioP1;P2;durP2;ratioP2
572;SDS011;271;51.114;13.780;2023-12-07T00:02:40;28.85;;;13.05;;
572;SDS011;271;51.114;13.780;2023-12-07T00:05:28;30.20;;;12.75;;
572;SDS011;271;51.114;13.780;2023-12-07T00:08:16;30.65;;;13.13;;
572;SDS011;271;51.114;13.780;2023-12-07T00:11:05;31.42;;;13.00;;
572;SDS011;271;51.114;13.780;2023-12-07T00:13:53;30.70;;;13.38;;
572;SDS011;271;51.114;13.780;2023-12-07T00:16:40;30.20;;;14.05;;
572;SDS011;271;51.114;13.780;2023-12-07T00:19:28;29.67;;;13.10;;
572;SDS011;271;51.114;13.780;2023-12-07T00:22:16;30.70;;;13.55;;
572;SDS011;271;51.114;13.780;2023-12-07T00:25:04;31.45;;;14.45;;
572;SDS011;271;51.114;13.780;2023-12-07T00:27:54;30.40;;;14.45;;
572;SDS011;271;51.114;13.780;2023-12-07T00:30:41;31.20;;;13.93;;
572;SDS011;271;51.114;13.780;2023-12-07T00:33:29;29.52;;;13.40;;
572;SDS011;271;51.114;13.780;2023-12-07T00:36:16;32.67;;;13.80;;
572;SDS011;271;51.114;13.780;2023-12-07T00:39:04;31.48;;;13.80;;
572;SDS011;271;51.114;13.780;2023-12-07T00:41:53;28.00;;;12.88;;
572;SDS011;271;51.114;13.780;2023-12-07T00:44:42;29.73;;;12.18;;
572;SDS011;271;51.114;13.780;2023-12-07T00:47:30;30.83;;;13.55;;
572;SDS011;271;51.114;13.780;2023-12-07T00:50:17;28.30;;;11.50;;
572;SDS011;271;51.114;13.780;2023-12-07T00:53:05;29.88;;;13.93;;
572;SDS011;271;51.114;13.780;2023-12-07T00:55:53;31.52;;;15.05;;
572;SDS011;271;51.114;13.780;2023-12-07T00:58:40;31.10;;;13.13;;
572;SDS011;271;51.114;13.780;2023-12-07T01:01:29;30.10;;;14.38;;
572;SDS011;271;51.114;13.780;2023-12-07T01:04:17;28.98;;;12.18;;
572;SDS011;271;51.114;13.780;2023-12-07T01:07:05;30.20;;;13.43;;
572;SDS011;271;51.114;13.780;2023-12-07T01:09:52;30.70;;;14.00;;
572;SDS011;271;51.114;13.780;2023-12-07T01:12:40;28.90;;;12.50;;
572;SDS011;271;51.114;13.780;2023-12-07T01:15:28;32.58;;;13.10;;
572;SDS011;271;51.114;13.780;2023-12-07T01:18:17;30.67;;;13.18;;
572;SDS011;271;51.114;13.780;2023-12-07T01:21:04;28.55;;;12.35;;
572;SDS011;271;51.114;13.780;2023-12-07T01:23:52;30.98;;;13.18;;
572;SDS011;271;51.114;13.780;2023-12-07T01:26:40;30.55;;;12.93;;
572;SDS011;271;51.114;13.780;2023-12-07T01:29:28;28.70;;;12.50;;
572;SDS011;271;51.114;13.780;2023-12-07T01:32:15;30.33;;;12.60;;
572;SDS011;271;51.114;13.780;2023-12-07T01:35:06;32.88;;;12.18;;
572;SDS011;271;51.114;13.780;2023-12-07T01:37:54;27.25;;;11.65;;
572;SDS011;271;51.114;13.780;2023-12-07T01:40:42;29.10;;;12.25;;
572;SDS011;271;51.114;13.780;2023-12-07T01:43:30;30.92;;;13.10;;
572;SDS011;271;51.114;13.780;2023-12-07T01:46:17;29.75;;;11.75;;
572;SDS011;271;51.114;13.780;2023-12-07T01:49:05;28.25;;;12.38;;
572;SDS011;271;51.114;13.780;2023-12-07T01:51:54;28.38;;;11.48;;
572;SDS011;271;51.114;13.780;2023-12-07T01:54:43;28.42;;;11.07;;
572;SDS011;271;51.114;13.780;2023-12-07T01:57:30;30.27;;;13.20;;
572;SDS011;271;51.114;13.780;2023-12-07T02:00:18;28.00;;;12.23;;
572;SDS011;271;51.114;13.780;2023-12-07T02:03:06;28.00;;;12.15;;
572;SDS011;271;51.114;13.780;2023-12-07T02:05:54;28.60;;;12.15;;
572;SDS011;271;51.114;13.780;2023-12-07T02:08:44;28.73;;;12.15;;
572;SDS011;271;51.114;13.780;2023-12-07T02:11:31;28.27;;;12.93;;
572;SDS011;271;51.114;13.780;2023-12-07T02:14:19;29.65;;;12.40;;
572;SDS011;271;51.114;13.780;2023-12-07T02:17:08;28.52;;;11.25;;
572;SDS011;271;51.114;13.780;2023-12-07T02:20:03;26.75;;;11.48;;
572;SDS011;271;51.114;13.780;2023-12-07T02:23:00;29.80;;;12.02;;
572;SDS011;271;51.114;13.780;2023-12-07T02:25:51;27.70;;;11.93;;
572;SDS011;271;51.114;13.780;2023-12-07T02:28:41;29.58;;;12.80;;
572;SDS011;271;51.114;13.780;2023-12-07T02:31:29;28.15;;;10.77;;
572;SDS011;271;51.114;13.780;2023-12-07T02:34:17;29.75;;;12.15;;
572;SDS011;271;51.114;13.780;2023-12-07T02:37:06;27.23;;;11.30;;
572;SDS011;271;51.114;13.780;2023-12-07T02:39:54;29.95;;;12.02;;
572;SDS011;271;51.114;13.780;2023-12-07T02:42:43;30.27;;;12.55;;
572;SDS011;271;51.114;13.780;2023-12-07T02:45:33;28.05;;;12.50;;
572;SDS011;271;51.114;13.780;2023-12-07T02:48:21;30.17;;;12.15;;
572;SDS011;271;51.114;13.780;2023-12-07T02:51:09;29.00;;;12.00;;
572;SDS011;271;51.114;13.780;2023-12-07T02:53:57;28.02;;;11.13;;
572;SDS011;271;51.114;13.780;2023-12-07T02:56:45;27.92;;;11.13;;
572;SDS011;271;51.114;13.780;2023-12-07T02:59:35;29.48;;;12.65;;
572;SDS011;271;51.114;13.780;2023-12-07T03:02:24;30.75;;;12.80;;
572;SDS011;271;51.114;13.780;2023-12-07T03:05:12;28.00;;;11.52;;
572;SDS011;271;51.114;13.780;2023-12-07T03:07:59;29.08;;;12.02;;
572;SDS011;271;51.114;13.780;2023-12-07T03:10:47;31.33;;;13.20;;
572;SDS011;271;51.114;13.780;2023-12-07T03:13:35;29.30;;;12.40;;
572;SDS011;271;51.114;13.780;2023-12-07T03:16:23;31.27;;;11.93;;
572;SDS011;271;51.114;13.780;2023-12-07T03:19:12;27.60;;;11.07;;
572;SDS011;271;51.114;13.780;2023-12-07T03:21:59;28.92;;;11.00;;
572;SDS011;271;51.114;13.780;2023-12-07T03:24:50;29.10;;;12.55;;
572;SDS011;271;51.114;13.780;2023-12-07T03:27:39;28.33;;;12.07;;
572;SDS011;271;51.114;13.780;2023-12-07T03:30:26;27.95;;;11.48;;
572;SDS011;271;51.114;13.780;2023-12-07T03:33:14;30.27;;;12.43;;
572;SDS011;271;51.114;13.780;2023-12-07T03:36:03;30.63;;;11.48;;
572;SDS011;271;51.114;13.780;2023-12-07T03:38:51;31.67;;;11.75;;
572;SDS011;271;51.114;13.780;2023-12-07T03:41:39;29.98;;;12.68;;
572;SDS011;271;51.114;13.780;2023-12-07T03:44:27;29.92;;;13.25;;
572;SDS011;271;51.114;13.780;2023-12-07T03:47:14;30.50;;;13.10;;
572;SDS011;271;51.114;13.780;2023-12-07T03:50:02;30.20;;;12.32;;
572;SDS011;271;51.114;13.780;2023-12-07T03:52:52;29.45;;;12.23;;
572;SDS011;271;51.114;13.780;2023-12-07T03:55:39;30.88;;;12.43;;
572;SDS011;271;51.114;13.780;2023-12-07T03:58:27;26.30;;;10.63;;
572;SDS011;271;51.114;13.780;2023-12-07T04:01:15;28.42;;;11.50;;
572;SDS011;271;51.114;13.780;2023-12-07T04:04:02;28.67;;;11.10;;
572;SDS011;271;51.114;13.780;2023-12-07T04:06:50;30.15;;;11.82;;
572;SDS011;271;51.114;13.780;2023-12-07T04:09:39;29.58;;;12.50;;
572;SDS011;271;51.114;13.780;2023-12-07T04:12:27;29.73;;;11.98;;
572;SDS011;271;51.114;13.780;2023-12-07T04:15:14;30.80;;;12.05;;
572;SDS011;271;51.114;13.780;2023-12-07T04:18:02;30.23;;;12.63;;
572;SDS011;271;51.114;13.780;2023-12-07T04:20:50;31.05;;;13.10;;
572;SDS011;271;51.114;13.780;2023-12-07T04:23:38;30.80;;;13.48;;
572;SDS011;271;51.114;13.780;2023-12-07T04:26:27;29.23;;;12.80;;
572;SDS011;271;51.114;13.780;2023-12-07T04:29:14;34.38;;;14.30;;
572;SDS011;271;51.114;13.780;2023-12-07T04:32:02;30.60;;;12.90;;
572;SDS011;271;51.114;13.780;2023-12-07T04:34:50;31.38;;;14.82;;
572;SDS011;271;51.114;13.780;2023-12-07T04:37:38;33.70;;;15.30;;
572;SDS011;271;51.114;13.780;2023-12-07T04:40:26;31.67;;;13.27;;
572;SDS011;271;51.114;13.780;2023-12-07T04:43:15;35.28;;;15.48;;
572;SDS011;271;51.114;13.780;2023-12-07T04:46:03;32.10;;;15.15;;
572;SDS011;271;51.114;13.780;2023-12-07T04:48:51;39.78;;;18.33;;
572;SDS011;271;51.114;13.780;2023-12-07T04:51:39;34.83;;;16.27;;
572;SDS011;271;51.114;13.780;2023-12-07T04:54:27;35.35;;;15.32;;
572;SDS011;271;51.114;13.780;2023-12-07T04:57:15;37.78;;;17.15;;
572;SDS011;271;51.114;13.780;2023-12-07T05:00:05;36.50;;;17.45;;
572;SDS011;271;51.114;13.780;2023-12-07T05:02:55;36.72;;;17.33;;
572;SDS011;271;51.114;13.780;2023-12-07T05:05:43;34.15;;;16.50;;
572;SDS011;271;51.114;13.780;2023-12-07T05:08:30;35.63;;;17.83;;
572;SDS011;271;51.114;13.780;2023-12-07T05:11:18;36.28;;;17.27;;
572;SDS011;271;51.114;13.780;2023-12-07T05:14:06;36.03;;;16.23;;
572;SDS011;271;51.114;13.780;2023-12-07T05:16:55;32.33;;;14.90;;
572;SDS011;271;51.114;13.780;2023-12-07T05:19:43;34.45;;;17.00;;
572;SDS011;271;51.114;13.780;2023-12-07T05:22:31;34.63;;;15.57;;
572;SDS011;271;51.114;13.780;2023-12-07T05:25:19;34.90;;;16.35;;
572;SDS011;271;51.114;13.780;2023-12-07T05:28:06;34.83;;;15.93;;
572;SDS011;271;51.114;13.780;2023-12-07T05:30:54;36.08;;;16.23;;
572;SDS011;271;51.114;13.780;2023-12-07T05:33:44;37.42;;;17.60;;
572;SDS011;271;51.114;13.780;2023-12-07T05:36:32;42.70;;;21.10;;
572;SDS011;271;51.114;13.780;2023-12-07T05:39:20;37.20;;;17.73;;
572;SDS011;271;51.114;13.780;2023-12-07T05:42:07;38.50;;;18.52;;
572;SDS011;271;51.114;13.780;2023-12-07T05:44:55;39.00;;;17.48;;
572;SDS011;271;51.114;13.780;2023-12-07T05:47:43;36.67;;;15.88;;
572;SDS011;271;51.114;13.780;2023-12-07T05:50:32;38.30;;;17.35;;
572;SDS011;271;51.114;13.780;2023-12-07T05:53:20;36.50;;;16.55;;
572;SDS011;271;51.114;13.780;2023-12-07T05:56:08;36.88;;;17.70;;
572;SDS011;271;51.114;13.780;2023-12-07T05:58:56;36.95;;;16.70;;
572;SDS011;271;51.114;13.780;2023-12-07T06:01:43;34.97;;;15.90;;
572;SDS011;271;51.114;13.780;2023-12-07T06:04:31;33.70;;;15.43;;
572;SDS011;271;51.114;13.780;2023-12-07T06:07:20;34.55;;;15.63;;
572;SDS011;271;51.114;13.780;2023-12-07T06:10:09;35.80;;;16.40;;
572;SDS011;271;51.114;13.780;2023-12-07T06:12:57;35.13;;;14.75;;
572;SDS011;271;51.114;13.780;2023-12-07T06:15:46;34.50;;;15.80;;
572;SDS011;271;51.114;13.780;2023-12-07T06:18:34;33.05;;;14.60;;
572;SDS011;271;51.114;13.780;2023-12-07T06:21:23;31.88;;;14.32;;
572;SDS011;271;51.114;13.780;2023-12-07T06:24:15;31.50;;;14.32;;
572;SDS011;271;51.114;13.780;2023-12-07T06:27:03;33.25;;;14.88;;
572;SDS011;271;51.114;13.780;2023-12-07T06:29:52;32.55;;;15.35;;
572;SDS011;271;51.114;13.780;2023-12-07T06:32:40;33.72;;;15.02;;
572;SDS011;271;51.114;13.780;2023-12-07T06:35:27;32.47;;;14.13;;
572;SDS011;271;51.114;13.780;2023-12-07T06:38:16;35.13;;;14.68;;
572;SDS011;271;51.114;13.780;2023-12-07T06:41:07;32.95;;;14.13;;
572;SDS011;271;51.114;13.780;2023-12-07T06:43:56;32.00;;;14.57;;
572;SDS011;271;51.114;13.780;2023-12-07T06:46:43;33.60;;;14.70;;
572;SDS011;271;51.114;13.780;2023-12-07T06:49:31;31.38;;;13.88;;
572;SDS011;271;51.114;13.780;2023-12-07T06:52:19;32.63;;;13.43;;
572;SDS011;271;51.114;13.780;2023-12-07T06:55:07;33.97;;;16.17;;
572;SDS011;271;51.114;13.780;2023-12-07T06:57:57;31.55;;;12.75;;
572;SDS011;271;51.114;13.780;2023-12-07T07:00:45;31.67;;;13.48;;
572;SDS011;271;51.114;13.780;2023-12-07T07:03:33;32.00;;;14.20;;
572;SDS011;271;51.114;13.780;2023-12-07T07:06:21;32.60;;;14.40;;
572;SDS011;271;51.114;13.780;2023-12-07T07:09:08;32.78;;;14.50;;
572;SDS011;271;51.114;13.780;2023-12-07T07:11:57;33.08;;;14.77;;
572;SDS011;271;51.114;13.780;2023-12-07T07:14:46;30.42;;;14.13;;
572;SDS011;271;51.114;13.780;2023-12-07T07:17:34;33.42;;;13.80;;
572;SDS011;271;51.114;13.780;2023-12-07T07:20:21;32.35;;;14.07;;
572;SDS011;271;51.114;13.780;2023-12-07T07:23:09;31.00;;;13.77;;
572;SDS011;271;51.114;13.780;2023-12-07T07:25:57;31.50;;;13.52;;
572;SDS011;271;51.114;13.780;2023-12-07T07:28:44;31.85;;;14.15;;
572;SDS011;271;51.114;13.780;2023-12-07T07:31:33;34.00;;;13.80;;
572;SDS011;271;51.114;13.780;2023-12-07T07:34:22;31.92;;;14.05;;
572;SDS011;271;51.114;13.780;2023-12-07T07:37:10;32.95;;;12.85;;
572;SDS011;271;51.114;13.780;2023-12-07T07:39:58;35.40;;;15.88;;
572;SDS011;271;51.114;13.780;2023-12-07T07:42:46;33.83;;;13.32;;
572;SDS011;271;51.114;13.780;2023-12-07T07:45:34;33.35;;;15.18;;
572;SDS011;271;51.114;13.780;2023-12-07T07:48:23;36.13;;;16.70;;
572;SDS011;271;51.114;13.780;2023-12-07T07:51:11;31.65;;;14.00;;
572;SDS011;271;51.114;13.780;2023-12-07T07:53:59;33.13;;;15.13;;
572;SDS011;271;51.114;13.780;2023-12-07T07:56:47;34.05;;;14.63;;
572;SDS011;271;51.114;13.780;2023-12-07T07:59:35;33.08;;;15.38;;
572;SDS011;271;51.114;13.780;2023-12-07T08:02:22;37.60;;;17.08;;
572;SDS011;271;51.114;13.780;2023-12-07T08:05:12;35.55;;;15.98;;
572;SDS011;271;51.114;13.780;2023-12-07T08:08:00;35.40;;;16.35;;
572;SDS011;271;51.114;13.780;2023-12-07T08:10:48;37.22;;;16.75;;
572;SDS011;271;51.114;13.780;2023-12-07T08:13:37;36.10;;;17.52;;
572;SDS011;271;51.114;13.780;2023-12-07T08:16:26;36.08;;;15.50;;
572;SDS011;271;51.114;13.780;2023-12-07T08:19:14;39.17;;;16.63;;
572;SDS011;271;51.114;13.780;2023-12-07T08:22:03;37.78;;;18.35;;
572;SDS011;271;51.114;13.780;2023-12-07T08:24:51;33.58;;;16.10;;
572;SDS011;271;51.114;13.780;2023-12-07T08:27:38;37.20;;;16.42;;
572;SDS011;271;51.114;13.780;2023-12-07T08:30:26;38.20;;;17.55;;
572;SDS011;271;51.114;13.780;2023-12-07T08:33:14;36.28;;;16.55;;
572;SDS011;271;51.114;13.780;2023-12-07T08:36:02;35.83;;;16.67;;
572;SDS011;271;51.114;13.780;2023-12-07T08:38:52;35.35;;;15.75;;
572;SDS011;271;51.114;13.780;2023-12-07T08:41:40;34.90;;;15.48;;
572;SDS011;271;51.114;13.780;2023-12-07T08:44:28;35.78;;;15.77;;
572;SDS011;271;51.114;13.780;2023-12-07T08:47:15;36.85;;;15.90;;
572;SDS011;271;51.114;13.780;2023-12-07T08:50:03;33.03;;;15.27;;
572;SDS011;271;51.114;13.780;2023-12-07T08:52:53;37.03;;;16.00;;
572;SDS011;271;51.114;13.780;2023-12-07T08:55:42;35.80;;;16.85;;
572;SDS011;271;51.114;13.780;2023-12-07T08:58:30;35.60;;;15.38;;
572;SDS011;271;51.114;13.780;2023-12-07T09:01:17;37.83;;;16.75;;
572;SDS011;271;51.114;13.780;2023-12-07T09:04:05;36.20;;;17.05;;
572;SDS011;271;51.114;13.780;2023-12-07T09:06:53;35.92;;;15.40;;
572;SDS011;271;51.114;13.780;2023-12-07T09:09:40;41.72;;;19.55;;
572;SDS011;271;51.114;13.780;2023-12-07T09:12:34;37.53;;;18.73;;
572;SDS011;271;51.114;13.780;2023-12-07T09:15:22;36.28;;;17.38;;
572;SDS011;271;51.114;13.780;2023-12-07T09:18:10;33.28;;;14.23;;
572;SDS011;271;51.114;13.780;2023-12-07T09:20:57;38.80;;;16.83;;
572;SDS011;271;51.114;13.780;2023-12-07T09:23:46;34.05;;;14.57;;
572;SDS011;271;51.114;13.780;2023-12-07T09:26:34;35.05;;;15.82;;
572;SDS011;271;51.114;13.780;2023-12-07T09:29:24;32.25;;;13.50;;
572;SDS011;271;51.114;13.780;2023-12-07T09:32:11;36.30;;;16.30;;
572;SDS011;271;51.114;13.780;2023-12-07T09:34:59;35.38;;;16.27;;
572;SDS011;271;51.114;13.780;2023-12-07T09:37:47;32.83;;;14.55;;
572;SDS011;271;51.114;13.780;2023-12-07T09:40:35;32.42;;;14.25;;
572;SDS011;271;51.114;13.780;2023-12-07T09:43:23;34.90;;;14.88;;
572;SDS011;271;51.114;13.780;2023-12-07T09:46:12;36.30;;;14.75;;
572;SDS011;271;51.114;13.780;2023-12-07T09:49:00;34.60;;;15.05;;
572;SDS011;271;51.114;13.780;2023-12-07T09:51:48;36.22;;;15.40;;
572;SDS011;271;51.114;13.780;2023-12-07T09:54:43;36.10;;;14.55;;
572;SDS011;271;51.114;13.780;2023-12-07T09:58:13;37.90;;;15.77;;
572;SDS011;271;51.114;13.780;2023-12-07T10:01:02;32.63;;;15.48;;
572;SDS011;271;51.114;13.780;2023-12-07T10:03:51;35.00;;;15.88;;
572;SDS011;271;51.114;13.780;2023-12-07T10:07:02;33.25;;;14.60;;
572;SDS011;271;51.114;13.780;2023-12-07T10:09:50;35.28;;;16.73;;
572;SDS011;271;51.114;13.780;2023-12-07T10:12:45;33.28;;;12.70;;
572;SDS011;271;51.114;13.780;2023-12-07T10:15:34;35.83;;;16.23;;
572;SDS011;271;51.114;13.780;2023-12-07T10:18:22;32.65;;;14.25;;
572;SDS011;271;51.114;13.780;2023-12-07T10:21:12;35.42;;;15.20;;
572;SDS011;271;51.114;13.780;2023-12-07T10:24:00;33.72;;;14.98;;
572;SDS011;271;51.114;13.780;2023-12-07T10:26:48;34.78;;;15.75;;
572;SDS011;271;51.114;13.780;2023-12-07T10:29:37;31.42;;;13.90;;
572;SDS011;271;51.114;13.780;2023-12-07T10:32:25;35.55;;;15.10;;
572;SDS011;271;51.114;13.780;2023-12-07T10:35:13;33.17;;;15.18;;
572;SDS011;271;51.114;13.780;2023-12-07T10:38:02;34.38;;;14.63;;
572;SDS011;271;51.114;13.780;2023-12-07T10:40:51;33.78;;;15.18;;
572;SDS011;271;51.114;13.780;2023-12-07T10:43:52;32.47;;;15.27;;
572;SDS011;271;51.114;13.780;2023-12-07T10:46:41;33.85;;;15.20;;
572;SDS011;271;51.114;13.780;2023-12-07T10:49:30;43.72;;;18.20;;
572;SDS011;271;51.114;13.780;2023-12-07T10:52:19;48.45;;;22.13;;
572;SDS011;271;51.114;13.780;2023-12-07T10:55:15;46.33;;;21.63;;
572;SDS011;271;51.114;13.780;2023-12-07T10:58:04;42.67;;;20.70;;
572;SDS011;271;51.114;13.780;2023-12-07T11:00:53;45.75;;;20.08;;
572;SDS011;271;51.114;13.780;2023-12-07T11:03:41;55.38;;;24.08;;
572;SDS011;271;51.114;13.780;2023-12-07T11:06:30;58.50;;;22.98;;
572;SDS011;271;51.114;13.780;2023-12-07T11:09:19;68.15;;;28.45;;
572;SDS011;271;51.114;13.780;2023-12-07T11:12:13;49.97;;;20.13;;
572;SDS011;271;51.114;13.780;2023-12-07T11:15:08;56.03;;;23.65;;
572;SDS011;271;51.114;13.780;2023-12-07T11:17:56;51.60;;;21.95;;
572;SDS011;271;51.114;13.780;2023-12-07T11:20:44;39.25;;;18.58;;
572;SDS011;271;51.114;13.780;2023-12-07T11:23:33;39.35;;;18.27;;
572;SDS011;271;51.114;13.780;2023-12-07T11:26:22;35.28;;;16.45;;
572;SDS011;271;51.114;13.780;2023-12-07T11:29:11;36.05;;;17.65;;
572;SDS011;271;51.114;13.780;2023-12-07T11:32:00;36.67;;;16.17;;
572;SDS011;271;51.114;13.780;2023-12-07T11:34:49;34.67;;;17.35;;
572;SDS011;271;51.114;13.780;2023-12-07T11:40:51;38.38;;;16.67;;
572;SDS011;271;51.114;13.780;2023-12-07T11:43:42;39.00;;;18.08;;
572;SDS011;271;51.114;13.780;2023-12-07T11:46:32;36.72;;;16.58;;
572;SDS011;271;51.114;13.780;2023-12-07T11:49:21;35.72;;;17.00;;
572;SDS011;271;51.114;13.780;2023-12-07T11:52:12;38.47;;;18.35;;
572;SDS011;271;51.114;13.780;2023-12-07T11:55:01;36.03;;;16.42;;
572;SDS011;271;51.114;13.780;2023-12-07T11:57:49;36.20;;;17.42;;
572;SDS011;271;51.114;13.780;2023-12-07T12:00:37;35.15;;;16.13;;
572;SDS011;271;51.114;13.780;2023-12-07T12:03:28;37.75;;;16.95;;
572;SDS011;271;51.114;13.780;2023-12-07T12:06:17;41.10;;;18.10;;
572;SDS011;271;51.114;13.780;2023-12-07T12:09:05;36.38;;;17.00;;
572;SDS011;271;51.114;13.780;2023-12-07T12:11:53;36.33;;;17.10;;
572;SDS011;271;51.114;13.780;2023-12-07T12:14:41;39.72;;;18.70;;
572;SDS011;271;51.114;13.780;2023-12-07T12:17:28;37.53;;;17.05;;
572;SDS011;271;51.114;13.780;2023-12-07T12:20:18;39.70;;;18.02;;
572;SDS011;271;51.114;13.780;2023-12-07T12:23:06;41.95;;;17.92;;
572;SDS011;271;51.114;13.780;2023-12-07T12:25:54;42.80;;;19.73;;
572;SDS011;271;51.114;13.780;2023-12-07T12:28:44;41.33;;;17.50;;
572;SDS011;271;51.114;13.780;2023-12-07T12:31:32;45.05;;;20.83;;
572;SDS011;271;51.114;13.780;2023-12-07T12:34:20;45.10;;;19.60;;
572;SDS011;271;51.114;13.780;2023-12-07T12:37:09;40.30;;;19.02;;
572;SDS011;271;51.114;13.780;2023-12-07T12:39:58;46.13;;;20.20;;
572;SDS011;271;51.114;13.780;2023-12-07T12:42:51;52.63;;;23.60;;
572;SDS011;271;51.114;13.780;2023-12-07T12:45:39;48.75;;;19.75;;
572;SDS011;271;51.114;13.780;2023-12-07T12:48:27;42.50;;;18.70;;
572;SDS011;271;51.114;13.780;2023-12-07T12:51:15;41.83;;;18.90;;
572;SDS011;271;51.114;13.780;2023-12-07T12:54:05;37.83;;;18.52;;
572;SDS011;271;51.114;13.780;2023-12-07T12:56:53;41.30;;;19.00;;
572;SDS011;271;51.114;13.780;2023-12-07T12:59:41;40.92;;;18.63;;
572;SDS011;271;51.114;13.780;2023-12-07T13:02:28;36.28;;;17.25;;
572;SDS011;271;51.114;13.780;2023-12-07T13:05:16;40.13;;;20.20;;
572;SDS011;271;51.114;13.780;2023-12-07T13:08:04;35.80;;;16.27;;
572;SDS011;271;51.114;13.780;2023-12-07T13:10:53;36.28;;;16.80;;
572;SDS011;271;51.114;13.780;2023-12-07T13:13:40;39.78;;;18.65;;
572;SDS011;271;51.114;13.780;2023-12-07T13:16:28;37.88;;;17.77;;
572;SDS011;271;51.114;13.780;2023-12-07T13:19:16;40.65;;;18.73;;
572;SDS011;271;51.114;13.780;2023-12-07T13:22:05;43.08;;;19.85;;
572;SDS011;271;51.114;13.780;2023-12-07T13:24:53;37.35;;;17.10;;
572;SDS011;271;51.114;13.780;2023-12-07T13:27:43;37.67;;;18.75;;
572;SDS011;271;51.114;13.780;2023-12-07T13:30:30;39.13;;;19.45;;
572;SDS011;271;51.114;13.780;2023-12-07T13:33:21;38.88;;;17.98;;
572;SDS011;271;51.114;13.780;2023-12-07T13:36:09;39.10;;;18.40;;
572;SDS011;271;51.114;13.780;2023-12-07T13:38:57;37.95;;;18.85;;
572;SDS011;271;51.114;13.780;2023-12-07T13:41:45;40.65;;;18.30;;
572;SDS011;271;51.114;13.780;2023-12-07T13:44:35;41.63;;;20.13;;
572;SDS011;271;51.114;13.780;2023-12-07T13:47:23;40.03;;;17.70;;
572;SDS011;271;51.114;13.780;2023-12-07T13:50:14;40.30;;;19.90;;
572;SDS011;271;51.114;13.780;2023-12-07T13:53:02;41.35;;;20.27;;
572;SDS011;271;51.114;13.780;2023-12-07T13:55:50;42.95;;;20.52;;
572;SDS011;271;51.114;13.780;2023-12-07T13:58:37;40.88;;;20.73;;
572;SDS011;271;51.114;13.780;2023-12-07T14:01:27;43.97;;;20.35;;
572;SDS011;271;51.114;13.780;2023-12-07T14:04:16;40.97;;;19.60;;
572;SDS011;271;51.114;13.780;2023-12-07T14:07:08;39.95;;;18.30;;
572;SDS011;271;51.114;13.780;2023-12-07T14:09:57;40.10;;;19.50;;
572;SDS011;271;51.114;13.780;2023-12-07T14:12:45;38.10;;;18.95;;
572;SDS011;271;51.114;13.780;2023-12-07T14:15:33;42.25;;;21.00;;
572;SDS011;271;51.114;13.780;2023-12-07T14:18:22;39.75;;;19.35;;
572;SDS011;271;51.114;13.780;2023-12-07T14:21:10;44.70;;;22.15;;
572;SDS011;271;51.114;13.780;2023-12-07T14:23:58;43.70;;;20.23;;
572;SDS011;271;51.114;13.780;2023-12-07T14:26:46;42.22;;;20.63;;
572;SDS011;271;51.114;13.780;2023-12-07T14:29:34;42.53;;;19.90;;
572;SDS011;271;51.114;13.780;2023-12-07T14:32:22;38.90;;;17.85;;
572;SDS011;271;51.114;13.780;2023-12-07T14:35:11;40.80;;;19.95;;
572;SDS011;271;51.114;13.780;2023-12-07T14:37:58;37.13;;;18.73;;
572;SDS011;271;51.114;13.780;2023-12-07T14:40:46;39.00;;;20.02;;
572;SDS011;271;51.114;13.780;2023-12-07T14:43:34;42.90;;;20.15;;
572;SDS011;271;51.114;13.780;2023-12-07T14:46:21;41.70;;;19.15;;
572;SDS011;271;51.114;13.780;2023-12-07T14:49:09;40.47;;;18.75;;
572;SDS011;271;51.114;13.780;2023-12-07T14:51:59;37.75;;;17.75;;
572;SDS011;271;51.114;13.780;2023-12-07T14:54:47;40.88;;;19.63;;
572;SDS011;271;51.114;13.780;2023-12-07T14:57:35;38.97;;;18.60;;
572;SDS011;271;51.114;13.780;2023-12-07T15:00:23;44.65;;;21.52;;
572;SDS011;271;51.114;13.780;2023-12-07T15:03:11;36.28;;;18.08;;
572;SDS011;271;51.114;13.780;2023-12-07T15:05:59;41.40;;;18.88;;
572;SDS011;271;51.114;13.780;2023-12-07T15:08:48;41.97;;;17.85;;
572;SDS011;271;51.114;13.780;2023-12-07T15:11:36;36.80;;;16.15;;
572;SDS011;271;51.114;13.780;2023-12-07T15:14:23;35.50;;;16.92;;
572;SDS011;271;51.114;13.780;2023-12-07T15:17:11;34.22;;;15.98;;
572;SDS011;271;51.114;13.780;2023-12-07T15:19:59;37.75;;;16.58;;
572;SDS011;271;51.114;13.780;2023-12-07T15:22:46;35.92;;;16.52;;
572;SDS011;271;51.114;13.780;2023-12-07T15:25:35;40.38;;;16.90;;
572;SDS011;271;51.114;13.780;2023-12-07T15:28:23;41.80;;;17.02;;
572;SDS011;271;51.114;13.780;2023-12-07T15:31:11;36.13;;;16.80;;
572;SDS011;271;51.114;13.780;2023-12-07T15:33:59;35.70;;;15.00;;
572;SDS011;271;51.114;13.780;2023-12-07T15:36:46;39.33;;;17.00;;
572;SDS011;271;51.114;13.780;2023-12-07T15:39:34;37.10;;;16.95;;
572;SDS011;271;51.114;13.780;2023-12-07T15:42:23;36.53;;;15.85;;
572;SDS011;271;51.114;13.780;2023-12-07T15:45:11;35.40;;;15.55;;
572;SDS011;271;51.114;13.780;2023-12-07T15:47:58;38.60;;;17.42;;
572;SDS011;271;51.114;13.780;2023-12-07T15:50:46;38.17;;;18.67;;
572;SDS011;271;51.114;13.780;2023-12-07T15:53:36;41.25;;;17.95;;
572;SDS011;271;51.114;13.780;2023-12-07T15:56:24;34.67;;;15.75;;
572;SDS011;271;51.114;13.780;2023-12-07T15:59:14;37.38;;;16.17;;
572;SDS011;271;51.114;13.780;2023-12-07T16:02:01;42.47;;;17.33;;
572;SDS011;271;51.114;13.780;2023-12-07T16:04:49;36.83;;;17.52;;
572;SDS011;271;51.114;13.780;2023-12-07T16:07:38;37.65;;;16.75;;
572;SDS011;271;51.114;13.780;2023-12-07T16:10:27;34.08;;;13.73;;
572;SDS011;271;51.114;13.780;2023-12-07T16:13:15;35.13;;;14.02;;
572;SDS011;271;51.114;13.780;2023-12-07T16:16:05;34.13;;;13.25;;
572;SDS011;271;51.114;13.780;2023-12-07T16:18:53;34.70;;;14.80;;
572;SDS011;271;51.114;13.780;2023-12-07T16:21:41;31.25;;;13.80;;
572;SDS011;271;51.114;13.780;2023-12-07T16:24:30;31.67;;;13.85;;
572;SDS011;271;51.114;13.780;2023-12-07T16:27:18;33.42;;;14.23;;
572;SDS011;271;51.114;13.780;2023-12-07T16:30:06;33.00;;;13.65;;
572;SDS011;271;51.114;13.780;2023-12-07T16:33:01;32.38;;;14.88;;
572;SDS011;271;51.114;13.780;2023-12-07T16:35:51;33.00;;;14.52;;
572;SDS011;271;51.114;13.780;2023-12-07T16:38:40;33.42;;;14.73;;
572;SDS011;271;51.114;13.780;2023-12-07T16:41:28;32.30;;;13.48;;
572;SDS011;271;51.114;13.780;2023-12-07T16:44:18;35.10;;;17.30;;
572;SDS011;271;51.114;13.780;2023-12-07T16:47:06;33.90;;;13.90;;
572;SDS011;271;51.114;13.780;2023-12-07T16:49:55;35.03;;;14.88;;
572;SDS011;271;51.114;13.780;2023-12-07T16:52:44;34.38;;;14.38;;
572;SDS011;271;51.114;13.780;2023-12-07T16:55:32;32.55;;;13.50;;
572;SDS011;271;51.114;13.780;2023-12-07T16:58:20;31.58;;;12.27;;
572;SDS011;271;51.114;13.780;2023-12-07T17:01:09;32.72;;;13.05;;
572;SDS011;271;51.114;13.780;2023-12-07T17:03:56;32.55;;;12.35;;
572;SDS011;271;51.114;13.780;2023-12-07T17:06:45;33.03;;;14.80;;
572;SDS011;271;51.114;13.780;2023-12-07T17:09:33;32.97;;;13.75;;
572;SDS011;271;51.114;13.780;2023-12-07T17:12:21;33.45;;;15.43;;
572;SDS011;271;51.114;13.780;2023-12-07T17:15:09;35.30;;;14.98;;